Time;durP1;ratioP1;P1;durP2;ratioP2;P2;SDS_P1;SDS_P2;PMS_P1;PMS_P2;Temp;Humidity;BMP_temperature;BMP_pressure;BME280_temperature;BME280_humidity;BME280_pressure;Samples;Min_cycle;Max_cycle;Signal;HPM_P1;HPM_P2
2022/07/17 00:01:27;;;;;;;9.50;2.90;;;17.10;99.90;;;;;;5005858;28;20502;-72
2022/07/17 00:03:54;;;;;;;9.90;2.53;;;16.90;99.90;;;;;;5012120;28;20455;-74
2022/07/17 00:06:21;;;;;;;8.53;2.23;;;16.80;99.90;;;;;;5012179;28;20452;-72
2022/07/17 00:08:48;;;;;;;9.53;1.90;;;16.70;99.90;;;;;;5011800;28;20488;-73
2022/07/17 00:11:15;;;;;;;8.50;2.10;;;16.60;99.90;;;;;;5011991;28;20460;-73
2022/07/17 00:13:42;;;;;;;9.27;2.40;;;;;;;;;;5011268;28;20803;-73
2022/07/17 00:16:09;;;;;;;9.43;1.63;;;;;;;;;;5012331;28;20496;-72
2022/07/17 00:18:38;;;;;;;8.30;1.97;;;;;;;;;;5011235;28;20490;-72
2022/07/17 00:21:05;;;;;;;11.63;2.50;;;;;;;;;;5011956;28;20467;-72
2022/07/17 00:23:33;;;;;;;13.00;2.17;;;;;;;;;;5011210;28;20562;-72
2022/07/17 00:26:00;;;;;;;9.00;2.27;;;;;;;;;;5011626;28;20458;-72
2022/07/17 00:28:27;;;;;;;8.47;2.00;;;;;;;;;;4998141;28;20450;-70
2022/07/17 00:30:54;;;;;;;10.20;2.20;;;;;;;;;;4993393;28;20461;-72
2022/07/17 00:33:21;;;;;;;10.20;2.30;;;;;;;;;;5010677;28;20951;-73
2022/07/17 00:35:50;;;;;;;9.63;2.20;;;;;;;;;;4997461;28;20450;-73
2022/07/17 00:38:17;;;;;;;9.07;2.17;;;;;;;;;;4994330;28;20487;-74
2022/07/17 00:40:44;;;;;;;10.90;2.53;;;;;;;;;;4993157;28;20968;-74
2022/07/17 00:43:12;;;;;;;9.60;2.17;;;;;;;;;;5002070;28;20472;-70
2022/07/17 00:45:39;;;;;;;8.43;2.30;;;;;;;;;;5010430;28;20455;-70
2022/07/17 00:48:07;;;;;;;9.43;2.17;;;;;;;;;;5007564;28;20453;-71
2022/07/17 00:50:36;;;;;;;11.67;1.97;;;;;;;;;;4987293;28;20938;-74
2022/07/17 00:53:05;;;;;;;11.33;2.70;;;;;;;;;;4996906;28;20457;-69
2022/07/17 00:55:32;;;;;;;8.13;1.83;;;;;;;;;;5001560;28;20461;-68
2022/07/17 00:58:01;;;;;;;9.30;2.27;;;;;;;;;;4992733;28;20441;-70
2022/07/17 01:00:29;;;;;;;9.13;1.80;;;;;;;;;;4994833;28;20953;-70
2022/07/17 01:02:56;;;;;;;8.40;2.20;;;;;;;;;;4995889;28;20449;-70
2022/07/17 01:05:23;;;;;;;9.20;2.20;;;;;;;;;;5017141;28;20453;-70
2022/07/17 01:07:51;;;;;;;9.00;2.10;;;;;;;;;;5013376;28;20444;-70
2022/07/17 01:10:20;;;;;;;10.40;2.50;;;;;;;;;;5016942;28;20458;-70
2022/07/17 01:12:48;;;;;;;9.00;2.53;;;;;;;;;;5016580;28;20460;-70
2022/07/17 01:15:15;;;;;;;9.60;2.33;;;;;;;;;;4999302;28;20547;-70
2022/07/17 01:17:43;;;;;;;9.53;2.20;;;;;;;;;;5010716;28;20936;-70
2022/07/17 01:20:11;;;;;;;8.77;2.10;;;;;;;;;;5006815;28;20483;-70
2022/07/17 01:22:43;;;;;;;9.00;2.40;;;;;;;;;;5015732;28;20456;-70
2022/07/17 01:25:11;;;;;;;8.73;1.97;;;;;;;;;;4994063;28;20476;-70
2022/07/17 01:27:38;;;;;;;8.57;2.07;;;;;;;;;;5002283;28;20542;-70
2022/07/17 01:30:06;;;;;;;10.00;2.70;;;;;;;;;;5003449;28;20622;-70
2022/07/17 01:32:34;;;;;;;10.53;2.50;;;;;;;;;;5013732;28;20454;-68
2022/07/17 01:35:01;;;;;;;10.27;2.70;;;;;;;;;;4999313;28;20451;-70
2022/07/17 01:37:28;;;;;;;8.90;2.80;;;;;;;;;;5001898;28;20811;-72
2022/07/17 01:39:56;;;;;;;8.30;2.00;;;;;;;;;;4999982;28;20480;-70
2022/07/17 01:42:24;;;;;;;8.50;2.30;;;;;;;;;;5008135;28;20462;-70
2022/07/17 01:44:52;;;;;;;7.50;1.73;;;;;;;;;;5007871;28;20448;-70
2022/07/17 01:47:19;;;;;;;8.83;2.20;;;;;;;;;;5007818;28;21308;-70
2022/07/17 01:49:47;;;;;;;8.73;1.90;;;;;;;;;;5005890;28;20965;-69
2022/07/17 01:52:14;;;;;;;8.60;2.17;;;;;;;;;;5010236;28;20478;-69
2022/07/17 01:54:42;;;;;;;8.40;2.20;;;;;;;;;;5006495;28;20444;-69
2022/07/17 01:57:11;;;;;;;8.70;2.20;;;;;;;;;;5010326;28;20566;-71
2022/07/17 01:59:38;;;;;;;8.70;2.30;;;;;;;;;;5000941;28;20492;-69
2022/07/17 02:02:06;;;;;;;8.50;2.40;;;;;;;;;;5011185;28;20450;-69
2022/07/17 02:04:33;;;;;;;8.47;2.47;;;;;;;;;;5012085;28;20589;-69
2022/07/17 02:07:00;;;;;;;9.90;2.73;;;;;;;;;;5000260;28;20542;-69
2022/07/17 02:09:27;;;;;;;10.63;2.50;;;;;;;;;;5003608;28;21014;-70
2022/07/17 02:11:55;;;;;;;8.20;2.33;;;;;;;;;;5000303;28;20542;-70
2022/07/17 02:14:23;;;;;;;7.60;1.97;;;;;;;;;;5003731;28;20465;-68
2022/07/17 02:16:50;;;;;;;8.77;2.30;;;;;;;;;;5004011;28;20453;-68
2022/07/17 02:19:18;;;;;;;8.20;2.23;;;;;;;;;;5004332;28;20486;-68
2022/07/17 02:21:45;;;;;;;9.30;2.63;;;;;;;;;;5012996;28;20451;-68
2022/07/17 02:24:12;;;;;;;8.10;2.10;;;;;;;;;;5004142;28;20485;-69
2022/07/17 02:26:39;;;;;;;8.57;2.33;;;;;;;;;;5004193;28;20459;-68
2022/07/17 02:29:06;;;;;;;8.50;2.23;;;;;;;;;;4995760;28;20962;-68
2022/07/17 02:31:35;;;;;;;9.47;2.70;;;;;;;;;;4992793;28;20511;-68
2022/07/17 02:34:02;;;;;;;8.73;2.57;;;;;;;;;;5003769;28;20456;-68
2022/07/17 02:36:30;;;;;;;8.47;2.40;;;;;;;;;;5001656;28;20452;-68
2022/07/17 02:38:57;;;;;;;9.17;2.23;;;;;;;;;;4997523;28;20512;-68
2022/07/17 02:41:25;;;;;;;9.23;2.47;;;;;;;;;;4996065;28;20453;-68
2022/07/17 02:43:52;;;;;;;9.10;2.47;;;;;;;;;;5006103;28;20449;-68
2022/07/17 02:46:19;;;;;;;9.67;2.47;;;;;;;;;;5004585;28;20450;-68
2022/07/17 02:48:47;;;;;;;9.60;2.57;;;;;;;;;;5007707;28;20451;-68
2022/07/17 02:51:14;;;;;;;9.20;2.27;;;;;;;;;;4994576;28;20464;-68
2022/07/17 02:53:41;;;;;;;9.27;2.83;;;;;;;;;;5009024;28;20451;-68
2022/07/17 02:56:09;;;;;;;9.17;2.80;;;;;;;;;;5002925;28;20488;-68
2022/07/17 02:58:36;;;;;;;9.47;2.50;;;;;;;;;;5001814;28;20456;-68
2022/07/17 03:01:03;;;;;;;9.73;3.17;;;;;;;;;;4994944;28;20453;-69
2022/07/17 03:03:30;;;;;;;9.00;2.77;;;;;;;;;;5001663;28;20464;-68
2022/07/17 03:05:59;;;;;;;8.17;2.20;;;;;;;;;;4993709;28;20958;-68
2022/07/17 03:08:26;;;;;;;9.33;2.40;;;;;;;;;;5007424;28;20460;-69
2022/07/17 03:10:53;;;;;;;9.27;3.00;;;;;;;;;;4996062;28;20462;-68
2022/07/17 03:13:20;;;;;;;12.20;2.30;;;;;;;;;;5011490;28;20459;-68
2022/07/17 03:15:47;;;;;;;10.07;2.73;;;;;;;;;;5009397;28;20527;-69
2022/07/17 03:18:14;;;;;;;9.80;2.80;;;;;;;;;;5015766;28;20447;-68
2022/07/17 03:20:41;;;;;;;11.40;2.40;;;;;;;;;;5014500;28;20490;-69
2022/07/17 03:23:10;;;;;;;9.57;2.97;;;;;;;;;;4998754;28;20461;-68
2022/07/17 03:25:38;;;;;;;10.37;2.47;;;;;;;;;;4999449;28;20460;-68
2022/07/17 03:28:05;;;;;;;9.50;2.60;;;;;;;;;;5011606;28;20450;-68
2022/07/17 03:30:32;;;;;;;9.80;2.27;;;;;;;;;;4997594;28;20839;-68
2022/07/17 03:32:59;;;;;;;12.20;3.00;;;;;;;;;;5001138;28;20459;-68
2022/07/17 03:35:26;;;;;;;10.43;2.87;;;;;;;;;;5001303;28;20963;-69
2022/07/17 03:37:53;;;;;;;9.63;2.70;;;;;;;;;;4999436;28;20705;-68
2022/07/17 03:40:22;;;;;;;9.03;2.33;;;;;;;;;;4993930;28;20487;-69
2022/07/17 03:42:49;;;;;;;8.80;2.27;;;;;;;;;;4996878;28;20452;-68
2022/07/17 03:45:16;;;;;;;9.33;2.30;;;;;;;;;;4997403;28;20455;-68
2022/07/17 03:47:43;;;;;;;9.47;2.30;;;;;;;;;;4994128;28;20538;-68
2022/07/17 03:50:11;;;;;;;8.87;2.37;;;;;;;;;;4998536;28;20466;-68
2022/07/17 03:52:38;;;;;;;9.47;2.37;;;;;;;;;;4999271;28;20446;-69
2022/07/17 03:55:05;;;;;;;9.10;2.63;;;;;;;;;;5002052;28;20460;-68
2022/07/17 03:57:34;;;;;;;13.67;2.93;;;;;;;;;;5002380;28;20476;-68
2022/07/17 04:00:01;;;;;;;9.60;2.63;;;;;;;;;;4998455;28;20489;-68
2022/07/17 04:02:28;;;;;;;10.00;2.70;;;;;;;;;;5007429;28;20458;-68
2022/07/17 04:04:55;;;;;;;10.17;3.37;;;;;;;;;;5001412;28;20566;-68
2022/07/17 04:07:29;;;;;;;9.60;2.77;;;;;;;;;;5002369;28;20456;-68
2022/07/17 04:09:57;;;;;;;9.87;2.67;;;;;;;;;;4995888;28;20486;-68
2022/07/17 04:12:24;;;;;;;10.20;3.40;;;;;;;;;;4992469;28;20800;-68
2022/07/17 04:14:53;;;;;;;12.97;2.93;;;;;;;;;;5004790;28;20481;-68
2022/07/17 04:17:20;;;;;;;10.40;3.03;;;;;;;;;;5010220;28;20448;-68
2022/07/17 04:19:47;;;;;;;9.30;2.77;;;;;;;;;;5000170;28;20482;-67
2022/07/17 04:22:14;;;;;;;9.17;2.53;;;;;;;;;;4995114;28;20461;-67
2022/07/17 04:24:41;;;;;;;9.80;2.90;;;;;;;;;;5005850;28;20457;-67
2022/07/17 04:27:09;;;;;;;10.77;2.60;;;;;;;;;;4999642;28;20482;-68
2022/07/17 04:29:36;;;;;;;9.17;2.13;;;;;;;;;;4996570;28;20533;-67
2022/07/17 04:32:05;;;;;;;11.03;3.13;;;;;;;;;;4996788;28;20460;-68
2022/07/17 04:34:33;;;;;;;10.70;3.43;;;;;;;;;;4997780;28;20459;-67
2022/07/17 04:37:01;;;;;;;10.23;3.13;;;;;;;;;;4995406;28;20550;-67
2022/07/17 04:39:28;;;;;;;10.70;2.93;;;;;;;;;;5000851;28;20486;-67
2022/07/17 04:41:55;;;;;;;9.20;2.53;;;;;;;;;;4993033;28;20539;-67
2022/07/17 04:44:23;;;;;;;10.37;2.87;;;;;;;;;;5009832;28;20488;-67
2022/07/17 04:46:50;;;;;;;9.43;2.70;;;;;;;;;;5000676;28;20625;-67
2022/07/17 04:49:18;;;;;;;10.20;2.73;;;;;;;;;;5004120;28;20539;-67
2022/07/17 04:51:45;;;;;;;9.80;2.70;;;;;;;;;;5004821;28;20448;-67
2022/07/17 04:54:13;;;;;;;9.57;2.60;;;;;;;;;;4994127;28;20457;-67
2022/07/17 04:56:40;;;;;;;9.40;2.50;;;;;;;;;;5001863;28;20479;-67
2022/07/17 04:59:07;;;;;;;10.77;2.60;;;;;;;;;;5001593;28;20456;-67
2022/07/17 05:01:34;;;;;;;10.33;3.13;;;;;;;;;;4995040;28;20860;-67
2022/07/17 05:04:02;;;;;;;10.17;2.60;;;;;;;;;;4997979;28;20539;-67
2022/07/17 05:06:31;;;;;;;9.43;2.27;;;;;;;;;;4999883;28;20469;-69
2022/07/17 05:08:58;;;;;;;9.37;2.50;;;;;;;;;;4997240;28;20457;-69
2022/07/17 05:11:25;;;;;;;11.60;3.00;;;;;;;;;;5004161;28;20482;-68
2022/07/17 05:13:52;;;;;;;9.07;2.33;;;;;;;;;;4997828;28;20535;-68
2022/07/17 05:16:19;;;;;;;9.30;2.63;;;;;;;;;;5002229;28;20464;-69
2022/07/17 05:18:47;;;;;;;9.40;2.40;;;;;;;;;;5007905;28;20445;-68
2022/07/17 05:21:15;;;;;;;9.40;2.50;;;;;;;;;;5002717;28;20980;-68
2022/07/17 05:23:43;;;;;;;10.60;3.00;;;;;;;;;;4999374;28;20459;-68
2022/07/17 05:26:10;;;;;;;9.30;2.10;;;;;;;;;;5005765;28;20460;-68
2022/07/17 05:28:38;;;;;;;9.07;2.30;;;;;;;;;;5004818;28;20536;-68
2022/07/17 05:31:05;;;;;;;11.23;3.10;;;;;;;;;;5000855;28;20988;-68
2022/07/17 05:33:32;;;;;;;9.17;2.60;;;;;;;;;;5000395;28;21010;-68
2022/07/17 05:35:59;;;;;;;9.77;2.37;;;;;;;;;;5002601;28;20544;-69
2022/07/17 05:38:26;;;;;;;10.13;2.60;;;;;;;;;;4992631;28;20830;-69
2022/07/17 05:40:55;;;;;;;9.90;2.70;;;;;;;;;;5000170;28;20892;-68
2022/07/17 05:43:22;;;;;;;8.70;2.30;;;;;;;;;;4995950;28;20453;-68
2022/07/17 05:45:49;;;;;;;8.90;2.60;;;;;;;;;;4991603;28;20925;-68
2022/07/17 05:48:16;;;;;;;10.50;2.70;;;;;;;;;;5003962;28;20449;-69
2022/07/17 05:50:44;;;;;;;9.93;2.77;;;;;;;;;;4998186;28;20465;-68
2022/07/17 05:53:11;;;;;;;10.00;3.00;;;;;;;;;;5006834;28;20952;-68
2022/07/17 05:55:38;;;;;;;10.27;3.10;;;;;;;;;;5006974;28;20593;-68
2022/07/17 05:58:06;;;;;;;9.90;3.00;;;;;;;;;;4999333;28;20462;-69
2022/07/17 06:00:34;;;;;;;9.90;3.30;;;;;;;;;;5004524;28;20486;-67
2022/07/17 06:03:01;;;;;;;13.27;3.70;;;;;;;;;;5001601;28;20521;-67
2022/07/17 06:05:29;;;;;;;11.87;4.27;;;;;;;;;;4987087;28;20457;-68
2022/07/17 06:07:57;;;;;;;11.00;3.70;;;;;;;;;;5002700;28;20445;-68
2022/07/17 06:10:24;;;;;;;11.37;3.63;;;;;;;;;;5010791;28;20976;-68
2022/07/17 06:12:52;;;;;;;9.20;2.83;;;;;;;;;;5006436;28;20454;-67
2022/07/17 06:15:21;;;;;;;8.97;2.93;;;;;;;;;;5007087;28;20496;-68
2022/07/17 06:17:48;;;;;;;10.77;3.90;;;;;;;;;;5000108;28;20875;-68
2022/07/17 06:20:15;;;;;;;9.70;3.50;;;;;;;;;;5005311;28;20481;-68
2022/07/17 06:22:42;;;;;;;11.20;3.33;;;;;;;;;;5006180;28;20969;-68
2022/07/17 06:25:10;;;;;;;8.83;3.03;;;;;;;;;;4997604;28;20483;-67
2022/07/17 06:27:39;;;;;;;10.67;3.70;;;;;;;;;;5009153;28;20448;-68
2022/07/17 06:30:07;;;;;;;12.50;4.13;;;;;;;;;;4994462;28;20481;-68
2022/07/17 06:32:36;;;;;;;12.70;3.70;;;;;;;;;;5005709;28;20545;-68
2022/07/17 06:35:03;;;;;;;10.70;3.20;;;;;;;;;;4996047;28;20445;-69
2022/07/17 06:37:30;;;;;;;10.37;3.53;;;;;;;;;;4994094;28;20548;-68
2022/07/17 06:39:57;;;;;;;10.67;3.23;;;;;;;;;;4997113;28;20488;-68
2022/07/17 06:42:24;;;;;;;12.03;3.53;;;;;;;;;;5004351;28;20817;-69
2022/07/17 06:44:51;;;;;;;10.60;3.80;;;;;;;;;;5003053;28;20546;-68
2022/07/17 06:47:19;;;;;;;9.83;2.67;;;;;;;;;;4998786;28;20507;-68
2022/07/17 06:49:47;;;;;;;11.60;4.00;;;;;;;;;;5006389;28;20464;-69
2022/07/17 06:52:14;;;;;;;10.30;3.40;;;;;;;;;;4999573;28;20821;-68
2022/07/17 06:54:41;;;;;;;11.80;3.60;;;;;;;;;;4992012;28;20458;-68
2022/07/17 06:57:08;;;;;;;8.00;2.20;;;;;;;;;;5010148;28;20567;-68
2022/07/17 06:59:36;;;;;;;15.10;3.70;;;;;;;;;;5004492;28;20453;-68
2022/07/17 07:02:03;;;;;;;10.80;3.80;;;;;;;;;;5010822;28;20568;-68
2022/07/17 07:04:30;;;;;;;9.67;2.80;;;;;;;;;;5000595;28;20879;-68
2022/07/17 07:06:58;;;;;;;11.33;3.23;;;;;;;;;;5001741;28;20970;-68
2022/07/17 07:09:26;;;;;;;9.53;2.73;;;;;;;;;;4997748;28;20446;-68
2022/07/17 07:11:53;;;;;;;10.43;3.43;;;;;;;;;;5011655;28;20506;-68
2022/07/17 07:14:20;;;;;;;8.70;3.03;;;;;;;;;;5005084;28;20445;-68
2022/07/17 07:16:48;;;;;;;8.30;2.40;;;;;;;;;;5001212;28;20815;-68
2022/07/17 07:19:15;;;;;;;10.00;3.20;;;;;;;;;;5006245;28;20448;-69
2022/07/17 07:21:42;;;;;;;11.97;3.07;;;;;;;;;;5012359;28;20490;-68
2022/07/17 07:24:10;;;;;;;10.20;2.87;;;;;;;;;;5008300;28;20459;-69
2022/07/17 07:26:37;;;;;;;9.67;2.90;;;;;;;;;;5003762;28;20563;-68
2022/07/17 07:29:05;;;;;;;9.43;2.50;;;;;;;;;;5005155;28;20449;-68
2022/07/17 07:31:32;;;;;;;11.37;2.60;;;;;;;;;;4999929;28;20495;-67
2022/07/17 07:33:59;;;;;;;8.90;2.70;;;;;;;;;;5012310;28;20471;-68
2022/07/17 07:36:27;;;;;;;17.03;3.07;;;;;;;;;;4993304;28;20536;-69
2022/07/17 07:38:54;;;;;;;8.70;2.20;;;;;;;;;;5001721;28;20472;-69
2022/07/17 07:41:23;;;;;;;10.43;2.80;;;;;;;;;;5007745;28;20508;-69
2022/07/17 07:43:50;;;;;;;9.67;3.00;;;;;;;;;;4995377;28;20632;-69
2022/07/17 07:46:17;;;;;;;10.87;2.90;;;;;;;;;;5000820;28;20444;-69
2022/07/17 07:48:44;;;;;;;10.50;3.17;;;;;;;;;;5005014;28;20892;-69
2022/07/17 07:51:12;;;;;;;11.60;3.33;;;;;;;;;;4993183;28;20465;-69
2022/07/17 07:53:39;;;;;;;9.37;2.93;;;;;;;;;;5008534;28;20492;-69
2022/07/17 07:56:06;;;;;;;10.23;2.97;;;;;;;;;;5006621;28;20967;-69
2022/07/17 07:58:35;;;;;;;8.57;2.33;;;;;;;;;;5011860;28;20448;-69
2022/07/17 08:01:02;;;;;;;8.47;2.60;;;;;;;;;;4985175;28;20564;-69
2022/07/17 08:03:29;;;;;;;9.20;2.33;;;;;;;;;;5001536;28;20458;-66
2022/07/17 08:05:57;;;;;;;12.47;2.70;;;;;;;;;;4998847;28;20810;-72
2022/07/17 08:08:24;;;;;;;8.60;2.40;;;;;;;;;;5006979;28;20455;-72
2022/07/17 08:10:51;;;;;;;9.17;2.63;;;;;;;;;;5005481;28;20449;-70
2022/07/17 08:13:18;;;;;;;10.60;2.40;;;;;;;;;;5010228;28;20474;-71
2022/07/17 08:15:47;;;;;;;9.30;1.70;;;;;;;;;;5005920;28;20536;-71
2022/07/17 08:18:14;;;;;;;8.80;2.63;;;;;;;;;;5007447;28;20452;-70
2022/07/17 08:20:42;;;;;;;8.20;2.30;;;;;;;;;;4987806;28;20486;-71
2022/07/17 08:23:09;;;;;;;8.40;2.00;;;;;;;;;;5002494;28;20948;-76
2022/07/17 08:25:37;;;;;;;11.30;2.20;;;;;;;;;;4993572;28;20860;-72
2022/07/17 08:28:04;;;;;;;8.80;2.10;;;;;;;;;;5004109;28;20520;-73
2022/07/17 08:30:34;;;;;;;8.67;2.57;;;;;;;;;;4994438;28;20453;-71
2022/07/17 08:33:03;;;;;;;8.80;2.30;;;;;;;;;;4993263;28;20524;-71
2022/07/17 08:35:30;;;;;;;9.87;2.17;;;;;;;;;;4983817;28;20556;-67
2022/07/17 08:38:00;;;;;;;9.13;2.10;;;;;;;;;;4994649;28;20445;-69
2022/07/17 08:40:27;;;;;;;9.10;1.83;;;;;;;;;;4994404;28;20870;-70
2022/07/17 08:42:55;;;;;;;8.63;2.20;;;;;;;;;;4996551;28;20469;-70
2022/07/17 08:45:22;;;;;;;8.70;2.00;;;;;;;;;;4998208;28;20445;-70
2022/07/17 08:47:51;;;;;;;9.07;2.20;;;;;;;;;;5007305;28;20752;-71
2022/07/17 08:50:22;;;;;;;9.30;1.97;;;;;;;;;;4993045;28;20540;-71
2022/07/17 08:52:49;;;;;;;9.77;2.07;;;;;;;;;;5008410;28;20673;-71
2022/07/17 08:55:18;;;;;;;8.73;1.93;;;;;;;;;;5008878;28;20452;-71
2022/07/17 08:57:46;;;;;;;10.23;2.40;;;;;;;;;;5008379;28;20567;-71
2022/07/17 09:00:14;;;;;;;9.07;1.70;;;;;;;;;;4995700;28;20437;-71
2022/07/17 09:02:41;;;;;;;9.13;2.00;;;;;;;;;;4995084;28;20477;-71
2022/07/17 09:05:09;;;;;;;9.50;2.23;;;;;;;;;;5007332;28;20452;-71
2022/07/17 09:07:46;;;;;;;9.57;2.17;;;;;;;;;;4983844;28;20447;-71
2022/07/17 09:10:14;;;;;;;9.00;2.20;;;;;;;;;;4989090;28;20443;-70
2022/07/17 09:12:41;;;;;;;9.90;2.23;;;;;;;;;;4991603;28;20449;-71
2022/07/17 09:15:15;;;;;;;9.20;2.40;;;;;;;;;;5008727;28;20954;-70
2022/07/17 09:17:48;;;;;;;9.40;1.83;;;;;;;;;;5003100;28;20529;-72
2022/07/17 09:20:16;;;;;;;8.57;2.07;;;;;;;;;;4995429;28;20795;-71
2022/07/17 09:22:45;;;;;;;9.40;1.87;;;;;;;;;;5003776;28;20484;-71
2022/07/17 09:25:13;;;;;;;11.43;2.37;;;;;;;;;;5007151;28;20540;-72
2022/07/17 09:27:40;;;;;;;9.30;2.23;;;;;;;;;;5009168;28;20456;-70
2022/07/17 09:30:10;;;;;;;8.50;1.67;;;;;;;;;;4999404;28;20799;-71
2022/07/17 09:32:39;;;;;;;8.50;1.63;;;;;;;;;;5005142;28;20425;-72
2022/07/17 09:35:07;;;;;;;8.50;1.83;;;;;;;;;;5001023;28;20437;-69
2022/07/17 09:37:35;;;;;;;8.63;2.17;;;;;;;;;;4991571;28;20481;-70
2022/07/17 09:40:04;;;;;;;8.83;1.53;;;;;;;;;;4999930;28;20448;-72
2022/07/17 09:42:32;;;;;;;9.10;1.90;;;;;;;;;;5010374;28;20562;-70
2022/07/17 09:45:00;;;;;;;8.70;1.87;;;;;;;;;;4996873;28;20511;-71
2022/07/17 09:47:28;;;;;;;8.90;1.80;;;;;;;;;;5004592;28;20792;-71
2022/07/17 09:49:56;;;;;;;8.40;1.40;;;;;;;;;;4992276;28;20796;-70
2022/07/17 09:52:24;;;;;;;8.70;1.70;;;;;;;;;;5007167;28;20523;-72
2022/07/17 09:54:53;;;;;;;9.37;1.50;;;;;;;;;;5004439;28;20503;-73
2022/07/17 09:57:21;;;;;;;8.90;1.53;;;;;;;;;;5002957;28;21039;-72
2022/07/17 09:59:50;;;;;;;8.80;1.70;;;;;;;;;;5013707;28;20451;-72
2022/07/17 10:02:18;;;;;;;8.70;1.70;;;;;;;;;;5014113;28;20574;-72
2022/07/17 10:04:47;;;;;;;9.03;1.67;;;;;;;;;;5013794;28;20448;-72
2022/07/17 10:07:14;;;;;;;8.60;1.40;;;;;;;;;;5014775;28;20532;-72
2022/07/17 10:09:41;;;;;;;8.60;1.60;;;;;;;;;;5013872;28;20550;-72
2022/07/17 10:12:09;;;;;;;8.70;1.60;;;;;;;;;;5005250;28;20463;-72
2022/07/17 10:14:41;;;;;;;8.47;1.30;;;;;;;;;;5009530;28;20452;-72
2022/07/17 10:17:08;;;;;;;8.50;1.47;;;;;;;;;;5014643;28;20440;-72
2022/07/17 10:19:44;;;;;;;8.90;1.47;;;;;;;;;;5013526;28;20916;-72
2022/07/17 10:22:11;;;;;;;9.60;1.70;;;;;;;;;;5013626;28;20983;-72
2022/07/17 10:24:46;;;;;;;9.40;1.70;;;;;;;;;;5013260;28;20902;-72
2022/07/17 10:27:19;;;;;;;8.43;1.43;;;;;;;;;;5004049;28;20452;-74
2022/07/17 10:29:48;;;;;;;8.60;1.40;;;;;;;;;;5013558;28;20905;-73
2022/07/17 10:32:16;;;;;;;8.47;1.53;;;;;;;;;;5013470;28;20456;-73
2022/07/17 10:34:44;;;;;;;8.83;1.70;;;;;;;;;;5013307;28;20445;-73
2022/07/17 10:37:22;;;;;;;8.90;1.90;;;;;;;;;;4997450;28;20511;-73
2022/07/17 10:40:00;;;;;;;9.67;1.63;;;;;;;;;;5013275;28;20744;-70
2022/07/17 10:42:40;;;;;;;8.80;1.60;;;;;;;;;;5013544;28;20518;-73
2022/07/17 10:45:09;;;;;;;9.10;2.00;;;;;;;;;;5014028;28;20476;-71
2022/07/17 10:47:50;;;;;;;9.17;1.80;;;;;;;;;;5013498;28;20474;-71
2022/07/17 10:50:18;;;;;;;10.10;1.70;;;;;;;;;;5013885;28;20444;-73
2022/07/17 10:52:45;;;;;;;8.67;1.70;;;;;;;;;;5012933;28;20816;-72
2022/07/17 10:55:20;;;;;;;8.17;1.50;;;;;;;;;;5013272;28;20521;-72
2022/07/17 10:57:48;;;;;;;10.10;1.57;;;;;;;;;;5007774;28;20459;-73
2022/07/17 11:00:17;;;;;;;8.70;1.50;;;;;;;;;;5012914;28;20452;-73
2022/07/17 11:02:44;;;;;;;9.90;1.90;;;;;;;;;;5012048;28;20831;-72
2022/07/17 11:05:14;;;;;;;9.17;1.70;;;;;;;;;;5013087;28;20512;-72
2022/07/17 11:07:55;;;;;;;8.80;1.90;;;;;;;;;;5012441;28;20441;-73
2022/07/17 11:10:22;;;;;;;8.60;1.70;;;;;;;;;;5013691;28;20448;-74
2022/07/17 11:12:49;;;;;;;8.87;1.73;;;;;;;;;;5011372;28;20457;-72
2022/07/17 11:15:18;;;;;;;8.50;1.40;;;;;;;;;;5013293;28;20814;-73
2022/07/17 11:17:46;;;;;;;8.30;1.50;;;;;;;;;;5012313;28;20524;-73
2022/07/17 11:20:13;;;;;;;8.37;1.60;;;;;;;;;;5013450;28;20810;-72
2022/07/17 11:22:41;;;;;;;10.70;1.67;;;;;;;;;;5011763;28;21029;-73
2022/07/17 11:25:09;;;;;;;8.27;1.43;;;;;;;;;;5013296;28;20931;-73
2022/07/17 11:27:38;;;;;;;10.27;1.93;;;;;;;;;;5002681;28;20476;-73
2022/07/17 11:30:06;;;;;;;9.63;1.50;;;;;;;;;;5019919;28;20444;-72
2022/07/17 11:32:35;;;;;;;8.87;1.63;;;;;;;;;;5028762;28;20456;-72
2022/07/17 11:35:02;;;;;;;8.30;1.40;;;;;;;;;;5028162;28;20451;-71
2022/07/17 11:37:30;;;;;;;8.40;1.50;;;;;;;;;;5002270;28;20445;-73
2022/07/17 11:39:58;;;;;;;8.97;2.33;;;;;;;;;;5013370;28;20459;-72
2022/07/17 11:42:25;;;;;;;8.63;1.67;;;;;;;;;;5012235;28;20484;-69
2022/07/17 11:44:53;;;;;;;8.47;1.83;;;;;;;;;;5012190;28;20803;-68
2022/07/17 11:47:22;;;;;;;8.27;1.70;;;;;;;;;;5012132;28;20887;-68
2022/07/17 11:49:51;;;;;;;9.40;1.80;;;;;;;;;;5000276;28;20997;-72
2022/07/17 11:52:19;;;;;;;8.70;1.63;;;;;;;;;;5008165;28;20456;-72
2022/07/17 11:54:47;;;;;;;8.30;1.70;;;;;;;;;;5009698;28;20941;-73
2022/07/17 11:57:17;;;;;;;8.50;1.70;;;;;;;;;;4999104;28;20579;-73
2022/07/17 11:59:44;;;;;;;8.17;1.70;;;;;;;;;;5002805;28;20460;-73
2022/07/17 12:02:12;;;;;;;8.30;1.97;;;;;;;;;;4994763;28;20484;-73
2022/07/17 12:04:51;;;;;;;8.43;1.77;;;;;;;;;;5009954;28;20494;-72
2022/07/17 12:07:18;;;;;;;8.20;1.50;;;;;;;;;;5010344;28;20486;-72
2022/07/17 12:09:46;;;;;;;8.23;2.00;;;;;;;;;;4996581;28;20459;-72
2022/07/17 12:12:20;;;;;;;8.10;1.60;;;;;;;;;;5009587;28;20986;-72
2022/07/17 12:14:48;;;;;;;8.20;1.70;;;;;;;;;;5009765;28;20458;-72
2022/07/17 12:17:15;;;;;;;8.57;2.00;;;;;;;;;;5010291;28;20452;-72
2022/07/17 12:19:43;;;;;;;8.40;1.90;;;;;;;;;;5005330;28;20956;-73
2022/07/17 12:22:11;;;;;;;7.83;1.60;;;;;;;;;;5000851;28;20550;-70
2022/07/17 12:24:39;;;;;;;8.00;1.70;;;;;;;;;;5004763;28;20464;-71
2022/07/17 12:27:08;;;;;;;8.00;2.00;;;;;;;;;;5001264;28;20452;-72
2022/07/17 12:29:36;;;;;;;9.40;1.97;;;;;;;;;;4999214;28;20480;-73
2022/07/17 12:32:07;;;;;;;7.90;1.80;;;;;;;;;;5009432;28;20463;-71
2022/07/17 12:34:35;;;;;;;8.10;1.90;;;;;;;;;;5009035;28;20460;-72
2022/07/17 12:37:02;;;;;;;9.60;1.50;;;;;;;;;;4994291;28;20572;-72
2022/07/17 12:39:30;;;;;;;9.00;2.20;;;;;;;;;;5009523;28;20578;-73
2022/07/17 12:41:58;;;;;;;8.33;2.00;;;;;;;;;;5009303;28;20487;-72
2022/07/17 12:44:25;;;;;;;8.07;1.70;;;;;;;;;;5009254;28;20458;-71
2022/07/17 12:46:53;;;;;;;7.50;1.57;;;;;;;;;;4995312;28;20453;-72
2022/07/17 12:49:20;;;;;;;8.40;1.63;;;;;;;;;;5009328;28;20967;-72
2022/07/17 12:51:47;;;;;;;7.40;1.30;;;;;;;;;;5008430;28;20451;-73
2022/07/17 12:54:14;;;;;;;9.93;2.10;;;;;;;;;;5009284;28;20462;-73
2022/07/17 12:56:43;;;;;;;8.23;1.80;;;;;;;;;;5008795;28;20483;-73
2022/07/17 12:59:10;;;;;;;8.50;1.53;;;;;;;;;;5005815;28;20451;-72
2022/07/17 13:01:37;;;;;;;7.57;1.60;;;;;;;;;;5006941;28;20460;-71
2022/07/17 13:04:05;;;;;;;8.10;1.80;;;;;;;;;;5011262;28;20454;-72
2022/07/17 13:06:33;;;;;;;8.93;1.83;;;;;;;;;;5013267;28;20518;-72
2022/07/17 13:09:00;;;;;;;7.87;1.77;;;;;;;;;;5023573;28;20490;-71
2022/07/17 13:11:28;;;;;;;8.47;1.60;;;;;;;;;;5018191;28;20435;-72
2022/07/17 13:13:57;;;;;;;8.20;1.80;;;;;;;;;;5030203;28;20482;-71
2022/07/17 13:16:24;;;;;;;8.63;1.60;;;;;;;;;;5028431;28;20982;-72
2022/07/17 13:18:51;;;;;;;8.00;1.60;;;;;;;;;;5025522;28;20506;-72
2022/07/17 13:21:19;;;;;;;7.77;1.80;;;;;;;;;;5020453;28;20487;-72
2022/07/17 13:23:46;;;;;;;7.60;1.50;;;;;;;;;;5009722;28;21001;-72
2022/07/17 13:26:13;;;;;;;7.60;1.57;;;;;;;;;;5008827;28;20468;-72
2022/07/17 13:28:40;;;;;;;10.13;2.23;;;;;;;;;;5001106;28;20540;-72
2022/07/17 13:31:09;;;;;;;8.77;1.90;;;;;;;;;;4993393;28;20455;-72
2022/07/17 13:33:36;;;;;;;7.90;1.70;;;;;;;;;;5008440;28;20452;-73
2022/07/17 13:36:03;;;;;;;7.70;1.60;;;;;;;;;;5001019;28;20790;-72
2022/07/17 13:38:30;;;;;;;8.13;1.60;;;;;;;;;;4988381;28;20453;-71
2022/07/17 13:40:57;;;;;;;7.60;1.60;;;;;;;;;;4995095;28;20461;-74
2022/07/17 13:43:24;;;;;;;7.57;1.33;;;;;;;;;;4993017;28;20488;-72
2022/07/17 13:45:51;;;;;;;8.50;2.10;;;;;;;;;;4999022;28;20456;-72
2022/07/17 13:48:20;;;;;;;7.37;1.33;;;;;;;;;;4993969;28;20445;-74
2022/07/17 13:50:47;;;;;;;7.83;1.67;;;;;;;;;;4988020;28;20451;-73
2022/07/17 13:53:15;;;;;;;7.60;1.53;;;;;;;;;;5001844;28;20457;-73
2022/07/17 13:55:42;;;;;;;8.30;2.00;;;;;;;;;;5004577;28;21173;-72
2022/07/17 13:58:10;;;;;;;9.00;2.53;;;;;;;;;;5000157;28;20472;-72
2022/07/17 14:00:37;;;;;;;8.03;1.83;;;;;;;;;;5005779;28;20205;-73
2022/07/17 14:03:05;;;;;;;7.93;1.73;;;;;;;;;;5007973;28;21024;-72
2022/07/17 14:05:33;;;;;;;8.07;2.03;;;;;;;;;;4998828;28;20200;-72
2022/07/17 14:08:01;;;;;;;8.20;1.70;;;;;;;;;;5005447;28;20233;-72
2022/07/17 14:10:28;;;;;;;8.30;1.80;;;;;;;;;;5003888;28;20209;-72
2022/07/17 14:12:55;;;;;;;7.90;1.50;;;;;;;;;;4996246;28;20236;-73
2022/07/17 14:15:22;;;;;;;8.10;1.88;;;;;;;;;;5006089;28;20223;-73
2022/07/17 14:17:49;;;;;;;8.70;2.60;;;;;;;;;;4997482;28;20503;-69
2022/07/17 14:20:16;;;;;;;8.35;1.58;;;;;;;;;;5007270;28;20208;-70
2022/07/17 14:22:45;;;;;;;8.18;1.95;;;;;;;;;;5004815;28;20232;-68
2022/07/17 14:25:12;;;;;;;8.77;2.30;;;;;;;;;;4990058;28;20331;-68
2022/07/17 14:27:39;;;;;;;8.07;1.95;;;;;;;;;;5010943;28;20200;-68
2022/07/17 14:30:07;;;;;;;8.18;1.77;;;;;;;;;;4991895;28;20201;-69
2022/07/17 14:32:34;;;;;;;8.00;1.90;;;;;;;;;;4999458;28;20205;-71
2022/07/17 14:35:01;;;;;;;8.13;1.98;;;;;;;;;;5007362;28;20251;-73
2022/07/17 14:37:29;;;;;;;8.70;1.70;;;;;;;;;;4994449;28;20197;-72
2022/07/17 14:39:58;;;;;;;7.90;1.40;;;;;;;;;;5002388;28;20245;-73
2022/07/17 14:42:25;;;;;;;7.90;1.58;;;;;;;;;;5011246;28;20294;-72